首页
METAR-TAF:

METAR-TAF

机场 :

盐湖城国际机场

盐湖城, 犹他州, 美国

纬度: 40-46-41N, 经度: 111-58-10W, 海拔: 1288米

当前天气观测

该预报发布于42分钟前的11:54 UTC
风速7节,风向南转南东
温度 19°C
湿度 64%
气压 1023 hPa
能見度: 16.1公里
少量云层高于20000英尺

METAR: KSLC 181154Z 15007KT 10SM FEW200 19/12 A3020 RMK AO2 SLP171 T01940117 10222 20183 53005

时间: 06:36 (12:36 UTC)

预报

该预报发布于1小时和16分钟前的11:20 UTC
预报有效从18日的 12点(UTC)到 19日的 18点(UTC)
风速5节,风向南转南东
能見度: 10公里
天空无云
从 18日的 1800点(UTC)
风速7节,风向西转西北
能見度: 10公里
天空无云
从 18日的 2000点(UTC)
风速11节,风向北转西北,有时为17节阵风
能見度: 10公里
少量云层高于10000英尺
从 19日的 0400点(UTC)
风速5节,风向南转南东
能見度: 10公里
天空无云

TAF: KSLC 181120Z 1812/1918 15005KT P6SM SKC FM181800 29007KT P6SM SKC FM182000 33011G17KT P6SM FEW100 FM190400 15005KT P6SM SKC

超过4000个机场的气象观测和天气预报(METAR&TAF报告)。

可查询的气象台以黄色和红色小点在地图上表示。

将鼠标移到小点上方,可查看气象台名称。

然后点击查看天气观测和预报。

如需切换地图:点击带黑十字的绿色按钮放大地图;点击带横线的绿色按钮缩小地图;或者点击绿色箭头查看邻近地区的地图。


METAR-TAF: